sensor_id;sensor_type;location;lat;lon;timestamp;P1;durP1;ratioP1;P2;durP2;ratioP2
58101;SDS011;52034;51.926;6.320;2023-08-21T00:00:20;7.87;;;2.47;;
58101;SDS011;52034;51.926;6.320;2023-08-21T00:01:20;6.83;;;2.47;;
58101;SDS011;52034;51.926;6.320;2023-08-21T00:02:21;4.27;;;2.40;;
58101;SDS011;52034;51.926;6.320;2023-08-21T00:03:21;3.87;;;2.23;;
58101;SDS011;52034;51.926;6.320;2023-08-21T00:04:22;5.90;;;2.67;;
58101;SDS011;52034;51.926;6.320;2023-08-21T00:05:22;7.83;;;2.50;;
58101;SDS011;52034;51.926;6.320;2023-08-21T00:06:22;7.83;;;2.43;;
58101;SDS011;52034;51.926;6.320;2023-08-21T00:07:23;5.67;;;2.30;;
58101;SDS011;52034;51.926;6.320;2023-08-21T00:08:23;7.90;;;2.43;;
58101;SDS011;52034;51.926;6.320;2023-08-21T00:09:23;7.03;;;2.80;;
58101;SDS011;52034;51.926;6.320;2023-08-21T00:10:24;7.13;;;2.20;;
58101;SDS011;52034;51.926;6.320;2023-08-21T00:11:24;3.77;;;2.20;;
58101;SDS011;52034;51.926;6.320;2023-08-21T00:12:24;4.17;;;2.30;;
58101;SDS011;52034;51.926;6.320;2023-08-21T00:13:25;3.77;;;2.10;;
58101;SDS011;52034;51.926;6.320;2023-08-21T00:14:25;8.27;;;2.40;;
58101;SDS011;52034;51.926;6.320;2023-08-21T00:15:25;7.47;;;2.20;;
58101;SDS011;52034;51.926;6.320;2023-08-21T00:16:26;6.67;;;2.53;;
58101;SDS011;52034;51.926;6.320;2023-08-21T00:17:28;5.47;;;2.40;;
58101;SDS011;52034;51.926;6.320;2023-08-21T00:18:28;5.47;;;2.57;;
58101;SDS011;52034;51.926;6.320;2023-08-21T00:19:29;7.73;;;2.70;;
58101;SDS011;52034;51.926;6.320;2023-08-21T00:20:29;4.35;;;2.70;;
58101;SDS011;52034;51.926;6.320;2023-08-21T00:21:30;4.90;;;2.50;;
58101;SDS011;52034;51.926;6.320;2023-08-21T00:22:31;3.87;;;2.40;;
58101;SDS011;52034;51.926;6.320;2023-08-21T00:23:31;4.53;;;2.60;;
58101;SDS011;52034;51.926;6.320;2023-08-21T00:24:31;7.53;;;2.87;;
58101;SDS011;52034;51.926;6.320;2023-08-21T00:25:33;7.23;;;2.70;;
58101;SDS011;52034;51.926;6.320;2023-08-21T00:26:33;5.63;;;2.55;;
58101;SDS011;52034;51.926;6.320;2023-08-21T00:27:34;8.90;;;3.30;;
58101;SDS011;52034;51.926;6.320;2023-08-21T00:28:34;5.57;;;2.93;;
58101;SDS011;52034;51.926;6.320;2023-08-21T00:29:35;7.32;;;2.90;;
58101;SDS011;52034;51.926;6.320;2023-08-21T00:30:36;6.30;;;2.77;;
58101;SDS011;52034;51.926;6.320;2023-08-21T00:31:36;10.60;;;3.40;;
58101;SDS011;52034;51.926;6.320;2023-08-21T00:32:37;4.80;;;2.83;;
58101;SDS011;52034;51.926;6.320;2023-08-21T00:33:38;7.17;;;2.80;;
58101;SDS011;52034;51.926;6.320;2023-08-21T00:34:38;5.00;;;3.03;;
58101;SDS011;52034;51.926;6.320;2023-08-21T00:35:38;6.23;;;2.87;;
58101;SDS011;52034;51.926;6.320;2023-08-21T00:36:38;7.83;;;3.17;;
58101;SDS011;52034;51.926;6.320;2023-08-21T00:37:39;6.33;;;2.83;;
58101;SDS011;52034;51.926;6.320;2023-08-21T00:38:39;6.87;;;3.40;;
58101;SDS011;52034;51.926;6.320;2023-08-21T00:39:40;7.33;;;2.70;;
58101;SDS011;52034;51.926;6.320;2023-08-21T00:40:40;6.70;;;2.90;;
58101;SDS011;52034;51.926;6.320;2023-08-21T00:41:40;5.27;;;2.80;;
58101;SDS011;52034;51.926;6.320;2023-08-21T00:42:42;6.63;;;2.90;;
58101;SDS011;52034;51.926;6.320;2023-08-21T00:43:42;6.20;;;2.90;;
58101;SDS011;52034;51.926;6.320;2023-08-21T00:44:42;5.57;;;2.57;;
58101;SDS011;52034;51.926;6.320;2023-08-21T00:45:44;5.65;;;2.85;;
58101;SDS011;52034;51.926;6.320;2023-08-21T00:46:46;6.25;;;2.80;;
58101;SDS011;52034;51.926;6.320;2023-08-21T00:47:49;6.50;;;2.67;;
58101;SDS011;52034;51.926;6.320;2023-08-21T00:48:50;4.20;;;2.53;;
58101;SDS011;52034;51.926;6.320;2023-08-21T00:49:50;6.77;;;2.90;;
58101;SDS011;52034;51.926;6.320;2023-08-21T00:50:50;4.77;;;2.70;;
58101;SDS011;52034;51.926;6.320;2023-08-21T00:51:51;5.47;;;2.50;;
58101;SDS011;52034;51.926;6.320;2023-08-21T00:52:52;7.82;;;2.95;;
58101;SDS011;52034;51.926;6.320;2023-08-21T00:53:53;6.90;;;2.47;;
58101;SDS011;52034;51.926;6.320;2023-08-21T00:54:53;7.27;;;3.07;;
58101;SDS011;52034;51.926;6.320;2023-08-21T00:55:54;5.68;;;3.05;;
58101;SDS011;52034;51.926;6.320;2023-08-21T00:56:55;5.10;;;2.60;;
58101;SDS011;52034;51.926;6.320;2023-08-21T00:57:55;7.00;;;2.83;;
58101;SDS011;52034;51.926;6.320;2023-08-21T00:58:56;5.23;;;2.43;;
58101;SDS011;52034;51.926;6.320;2023-08-21T00:59:56;6.87;;;3.00;;
58101;SDS011;52034;51.926;6.320;2023-08-21T01:00:57;7.47;;;3.13;;
58101;SDS011;52034;51.926;6.320;2023-08-21T01:01:58;8.48;;;3.03;;
58101;SDS011;52034;51.926;6.320;2023-08-21T01:02:58;5.97;;;2.87;;
58101;SDS011;52034;51.926;6.320;2023-08-21T01:03:58;4.97;;;3.10;;
58101;SDS011;52034;51.926;6.320;2023-08-21T01:04:59;6.47;;;2.80;;
58101;SDS011;52034;51.926;6.320;2023-08-21T01:05:59;7.00;;;3.00;;
58101;SDS011;52034;51.926;6.320;2023-08-21T01:06:59;9.37;;;3.00;;
58101;SDS011;52034;51.926;6.320;2023-08-21T01:08:02;6.80;;;2.97;;
58101;SDS011;52034;51.926;6.320;2023-08-21T01:09:08;7.97;;;3.28;;
58101;SDS011;52034;51.926;6.320;2023-08-21T01:13:19;6.82;;;3.17;;
58101;SDS011;52034;51.926;6.320;2023-08-21T01:15:04;9.05;;;3.15;;
58101;SDS011;52034;51.926;6.320;2023-08-21T01:16:05;8.77;;;3.42;;
58101;SDS011;52034;51.926;6.320;2023-08-21T01:17:08;7.78;;;3.17;;
58101;SDS011;52034;51.926;6.320;2023-08-21T01:18:12;3.55;;;3.13;;
58101;SDS011;52034;51.926;6.320;2023-08-21T01:19:24;7.10;;;3.27;;
58101;SDS011;52034;51.926;6.320;2023-08-21T01:20:30;8.63;;;3.67;;
58101;SDS011;52034;51.926;6.320;2023-08-21T01:21:30;7.57;;;3.37;;
58101;SDS011;52034;51.926;6.320;2023-08-21T01:22:41;5.95;;;3.50;;
58101;SDS011;52034;51.926;6.320;2023-08-21T01:23:46;7.28;;;3.20;;
58101;SDS011;52034;51.926;6.320;2023-08-21T01:24:47;6.38;;;3.30;;
58101;SDS011;52034;51.926;6.320;2023-08-21T01:25:47;9.10;;;3.33;;
58101;SDS011;52034;51.926;6.320;2023-08-21T01:26:47;10.23;;;3.30;;
58101;SDS011;52034;51.926;6.320;2023-08-21T01:27:48;10.80;;;3.20;;
58101;SDS011;52034;51.926;6.320;2023-08-21T01:28:50;7.20;;;3.08;;
58101;SDS011;52034;51.926;6.320;2023-08-21T01:29:51;7.97;;;3.17;;
58101;SDS011;52034;51.926;6.320;2023-08-21T01:30:54;6.90;;;3.33;;
58101;SDS011;52034;51.926;6.320;2023-08-21T01:33:06;5.88;;;2.95;;
58101;SDS011;52034;51.926;6.320;2023-08-21T01:34:11;6.40;;;3.13;;
58101;SDS011;52034;51.926;6.320;2023-08-21T01:35:11;7.20;;;3.50;;
58101;SDS011;52034;51.926;6.320;2023-08-21T01:36:13;7.22;;;3.80;;
58101;SDS011;52034;51.926;6.320;2023-08-21T01:37:14;8.02;;;3.60;;
58101;SDS011;52034;51.926;6.320;2023-08-21T01:38:15;5.75;;;3.28;;
58101;SDS011;52034;51.926;6.320;2023-08-21T01:39:18;7.63;;;3.40;;
58101;SDS011;52034;51.926;6.320;2023-08-21T01:40:22;8.33;;;3.53;;
58101;SDS011;52034;51.926;6.320;2023-08-21T01:41:24;7.97;;;3.45;;
58101;SDS011;52034;51.926;6.320;2023-08-21T01:42:25;8.73;;;3.55;;
58101;SDS011;52034;51.926;6.320;2023-08-21T01:43:25;8.97;;;3.47;;
58101;SDS011;52034;51.926;6.320;2023-08-21T01:44:25;7.70;;;3.33;;
58101;SDS011;52034;51.926;6.320;2023-08-21T01:45:26;6.50;;;3.42;;
58101;SDS011;52034;51.926;6.320;2023-08-21T01:46:27;5.10;;;3.07;;
58101;SDS011;52034;51.926;6.320;2023-08-21T01:47:27;6.47;;;3.60;;
58101;SDS011;52034;51.926;6.320;2023-08-21T01:48:28;7.50;;;3.20;;
58101;SDS011;52034;51.926;6.320;2023-08-21T01:49:28;7.97;;;3.27;;
58101;SDS011;52034;51.926;6.320;2023-08-21T01:50:28;5.13;;;2.77;;
58101;SDS011;52034;51.926;6.320;2023-08-21T01:51:29;9.07;;;3.27;;
58101;SDS011;52034;51.926;6.320;2023-08-21T01:52:29;6.07;;;2.87;;
58101;SDS011;52034;51.926;6.320;2023-08-21T01:53:29;4.83;;;3.03;;
58101;SDS011;52034;51.926;6.320;2023-08-21T01:54:30;7.00;;;3.00;;
58101;SDS011;52034;51.926;6.320;2023-08-21T01:55:31;5.65;;;2.50;;
58101;SDS011;52034;51.926;6.320;2023-08-21T01:56:32;7.63;;;3.23;;
58101;SDS011;52034;51.926;6.320;2023-08-21T01:57:33;5.37;;;2.93;;
58101;SDS011;52034;51.926;6.320;2023-08-21T01:58:33;5.13;;;3.07;;
58101;SDS011;52034;51.926;6.320;2023-08-21T01:59:33;6.33;;;3.37;;
58101;SDS011;52034;51.926;6.320;2023-08-21T02:00:34;5.50;;;3.20;;
58101;SDS011;52034;51.926;6.320;2023-08-21T02:01:34;9.40;;;4.27;;
58101;SDS011;52034;51.926;6.320;2023-08-21T02:02:34;5.73;;;3.37;;
58101;SDS011;52034;51.926;6.320;2023-08-21T02:03:35;4.17;;;3.20;;
58101;SDS011;52034;51.926;6.320;2023-08-21T02:04:36;8.77;;;4.33;;
58101;SDS011;52034;51.926;6.320;2023-08-21T02:05:39;4.83;;;3.33;;
58101;SDS011;52034;51.926;6.320;2023-08-21T02:06:42;5.32;;;2.97;;
58101;SDS011;52034;51.926;6.320;2023-08-21T02:07:44;5.63;;;3.00;;
58101;SDS011;52034;51.926;6.320;2023-08-21T02:08:44;5.50;;;3.23;;
58101;SDS011;52034;51.926;6.320;2023-08-21T02:09:45;6.43;;;3.50;;
58101;SDS011;52034;51.926;6.320;2023-08-21T02:10:49;6.50;;;3.20;;
58101;SDS011;52034;51.926;6.320;2023-08-21T02:11:50;5.82;;;3.30;;
58101;SDS011;52034;51.926;6.320;2023-08-21T02:12:50;7.30;;;3.87;;
58101;SDS011;52034;51.926;6.320;2023-08-21T02:13:52;7.25;;;3.60;;
58101;SDS011;52034;51.926;6.320;2023-08-21T02:14:52;7.07;;;3.63;;
58101;SDS011;52034;51.926;6.320;2023-08-21T02:15:53;6.45;;;3.63;;
58101;SDS011;52034;51.926;6.320;2023-08-21T02:16:53;6.07;;;3.53;;
58101;SDS011;52034;51.926;6.320;2023-08-21T02:17:53;10.40;;;3.60;;
58101;SDS011;52034;51.926;6.320;2023-08-21T02:18:54;8.23;;;3.10;;
58101;SDS011;52034;51.926;6.320;2023-08-21T02:19:55;10.30;;;3.45;;
58101;SDS011;52034;51.926;6.320;2023-08-21T02:20:55;5.27;;;2.87;;
58101;SDS011;52034;51.926;6.320;2023-08-21T02:21:56;5.27;;;3.30;;
58101;SDS011;52034;51.926;6.320;2023-08-21T02:22:56;5.75;;;2.80;;
58101;SDS011;52034;51.926;6.320;2023-08-21T02:23:57;5.93;;;2.90;;
58101;SDS011;52034;51.926;6.320;2023-08-21T02:24:57;5.50;;;2.80;;
58101;SDS011;52034;51.926;6.320;2023-08-21T02:25:58;5.93;;;3.03;;
58101;SDS011;52034;51.926;6.320;2023-08-21T02:26:58;7.70;;;3.33;;
58101;SDS011;52034;51.926;6.320;2023-08-21T02:27:58;5.47;;;2.93;;
58101;SDS011;52034;51.926;6.320;2023-08-21T02:28:59;7.23;;;3.00;;
58101;SDS011;52034;51.926;6.320;2023-08-21T02:29:59;5.00;;;2.87;;
58101;SDS011;52034;51.926;6.320;2023-08-21T02:30:59;5.50;;;3.30;;
58101;SDS011;52034;51.926;6.320;2023-08-21T02:32:00;5.97;;;3.17;;
58101;SDS011;52034;51.926;6.320;2023-08-21T02:33:00;4.90;;;3.50;;
58101;SDS011;52034;51.926;6.320;2023-08-21T02:34:01;7.17;;;3.47;;
58101;SDS011;52034;51.926;6.320;2023-08-21T02:35:01;5.30;;;3.00;;
58101;SDS011;52034;51.926;6.320;2023-08-21T02:36:01;6.10;;;3.30;;
58101;SDS011;52034;51.926;6.320;2023-08-21T02:37:04;8.32;;;3.28;;
58101;SDS011;52034;51.926;6.320;2023-08-21T02:38:05;6.82;;;3.42;;
58101;SDS011;52034;51.926;6.320;2023-08-21T02:39:09;6.88;;;3.67;;
58101;SDS011;52034;51.926;6.320;2023-08-21T02:40:09;5.90;;;3.30;;
58101;SDS011;52034;51.926;6.320;2023-08-21T02:41:09;10.10;;;3.40;;
58101;SDS011;52034;51.926;6.320;2023-08-21T02:42:10;7.57;;;3.73;;
58101;SDS011;52034;51.926;6.320;2023-08-21T02:43:10;8.57;;;3.50;;
58101;SDS011;52034;51.926;6.320;2023-08-21T02:44:10;8.37;;;3.73;;
58101;SDS011;52034;51.926;6.320;2023-08-21T02:45:11;6.38;;;3.42;;
58101;SDS011;52034;51.926;6.320;2023-08-21T02:46:12;6.63;;;3.00;;
58101;SDS011;52034;51.926;6.320;2023-08-21T02:47:12;7.57;;;3.00;;
58101;SDS011;52034;51.926;6.320;2023-08-21T02:48:12;3.60;;;2.80;;
58101;SDS011;52034;51.926;6.320;2023-08-21T02:49:12;7.43;;;3.10;;
58101;SDS011;52034;51.926;6.320;2023-08-21T02:50:13;10.70;;;3.50;;
58101;SDS011;52034;51.926;6.320;2023-08-21T02:51:13;7.53;;;3.67;;
58101;SDS011;52034;51.926;6.320;2023-08-21T02:52:14;6.00;;;2.87;;
58101;SDS011;52034;51.926;6.320;2023-08-21T02:53:14;11.57;;;4.20;;
58101;SDS011;52034;51.926;6.320;2023-08-21T02:54:14;7.87;;;3.30;;
58101;SDS011;52034;51.926;6.320;2023-08-21T02:55:15;7.80;;;3.10;;
58101;SDS011;52034;51.926;6.320;2023-08-21T02:56:15;9.85;;;3.75;;
58101;SDS011;52034;51.926;6.320;2023-08-21T02:57:16;8.23;;;3.20;;
58101;SDS011;52034;51.926;6.320;2023-08-21T02:58:16;8.53;;;3.57;;
58101;SDS011;52034;51.926;6.320;2023-08-21T02:59:16;7.43;;;3.80;;
58101;SDS011;52034;51.926;6.320;2023-08-21T03:00:17;12.10;;;3.77;;
58101;SDS011;52034;51.926;6.320;2023-08-21T03:01:17;5.13;;;3.17;;
58101;SDS011;52034;51.926;6.320;2023-08-21T03:02:18;7.10;;;3.70;;
58101;SDS011;52034;51.926;6.320;2023-08-21T03:03:19;6.27;;;3.37;;
58101;SDS011;52034;51.926;6.320;2023-08-21T03:04:19;9.77;;;3.73;;
58101;SDS011;52034;51.926;6.320;2023-08-21T03:05:20;6.30;;;3.13;;
58101;SDS011;52034;51.926;6.320;2023-08-21T03:06:20;9.17;;;3.37;;
58101;SDS011;52034;51.926;6.320;2023-08-21T03:07:21;12.13;;;3.83;;
58101;SDS011;52034;51.926;6.320;2023-08-21T03:08:21;9.67;;;3.43;;
58101;SDS011;52034;51.926;6.320;2023-08-21T03:09:21;6.47;;;3.47;;
58101;SDS011;52034;51.926;6.320;2023-08-21T03:10:22;8.63;;;3.80;;
58101;SDS011;52034;51.926;6.320;2023-08-21T03:11:23;7.97;;;3.58;;
58101;SDS011;52034;51.926;6.320;2023-08-21T03:12:24;8.77;;;3.67;;
58101;SDS011;52034;51.926;6.320;2023-08-21T03:13:24;8.50;;;4.13;;
58101;SDS011;52034;51.926;6.320;2023-08-21T03:14:26;7.60;;;3.50;;
58101;SDS011;52034;51.926;6.320;2023-08-21T03:15:26;8.52;;;3.70;;
58101;SDS011;52034;51.926;6.320;2023-08-21T03:16:27;10.80;;;3.63;;
58101;SDS011;52034;51.926;6.320;2023-08-21T03:17:27;8.10;;;3.40;;
58101;SDS011;52034;51.926;6.320;2023-08-21T03:18:30;7.23;;;3.80;;
58101;SDS011;52034;51.926;6.320;2023-08-21T03:19:31;12.38;;;4.00;;
58101;SDS011;52034;51.926;6.320;2023-08-21T03:20:32;8.07;;;3.37;;
58101;SDS011;52034;51.926;6.320;2023-08-21T03:21:32;8.63;;;4.20;;
58101;SDS011;52034;51.926;6.320;2023-08-21T03:22:34;8.20;;;4.15;;
58101;SDS011;52034;51.926;6.320;2023-08-21T03:23:34;7.93;;;4.03;;
58101;SDS011;52034;51.926;6.320;2023-08-21T03:24:34;9.27;;;4.10;;
58101;SDS011;52034;51.926;6.320;2023-08-21T03:25:35;8.17;;;4.10;;
58101;SDS011;52034;51.926;6.320;2023-08-21T03:26:35;8.30;;;3.97;;
58101;SDS011;52034;51.926;6.320;2023-08-21T03:27:35;7.17;;;3.60;;
58101;SDS011;52034;51.926;6.320;2023-08-21T03:28:40;7.93;;;3.42;;
58101;SDS011;52034;51.926;6.320;2023-08-21T03:29:40;11.33;;;3.57;;
58101;SDS011;52034;51.926;6.320;2023-08-21T03:30:40;7.47;;;3.47;;
58101;SDS011;52034;51.926;6.320;2023-08-21T03:31:41;8.10;;;3.70;;
58101;SDS011;52034;51.926;6.320;2023-08-21T03:32:42;8.50;;;3.75;;
58101;SDS011;52034;51.926;6.320;2023-08-21T03:33:43;9.57;;;3.38;;
58101;SDS011;52034;51.926;6.320;2023-08-21T03:34:44;10.10;;;3.80;;
58101;SDS011;52034;51.926;6.320;2023-08-21T03:35:45;6.53;;;3.72;;
58101;SDS011;52034;51.926;6.320;2023-08-21T03:36:45;6.67;;;3.30;;
58101;SDS011;52034;51.926;6.320;2023-08-21T03:37:46;5.93;;;3.50;;
58101;SDS011;52034;51.926;6.320;2023-08-21T03:38:48;5.60;;;3.30;;
58101;SDS011;52034;51.926;6.320;2023-08-21T03:39:48;5.70;;;3.63;;
58101;SDS011;52034;51.926;6.320;2023-08-21T03:40:48;8.77;;;3.97;;
58101;SDS011;52034;51.926;6.320;2023-08-21T03:41:50;8.20;;;3.78;;
58101;SDS011;52034;51.926;6.320;2023-08-21T03:42:51;5.70;;;3.53;;
58101;SDS011;52034;51.926;6.320;2023-08-21T03:43:51;9.50;;;4.27;;
58101;SDS011;52034;51.926;6.320;2023-08-21T03:44:51;8.77;;;4.37;;
58101;SDS011;52034;51.926;6.320;2023-08-21T03:45:52;6.37;;;4.00;;
58101;SDS011;52034;51.926;6.320;2023-08-21T03:46:52;6.10;;;3.63;;
58101;SDS011;52034;51.926;6.320;2023-08-21T03:47:52;10.50;;;4.53;;
58101;SDS011;52034;51.926;6.320;2023-08-21T03:48:54;8.48;;;4.40;;
58101;SDS011;52034;51.926;6.320;2023-08-21T03:49:54;11.00;;;4.70;;
58101;SDS011;52034;51.926;6.320;2023-08-21T03:50:57;10.10;;;4.78;;
58101;SDS011;52034;51.926;6.320;2023-08-21T03:51:57;9.87;;;4.10;;
58101;SDS011;52034;51.926;6.320;2023-08-21T03:52:58;8.30;;;4.43;;
58101;SDS011;52034;51.926;6.320;2023-08-21T03:53:58;11.40;;;4.30;;
58101;SDS011;52034;51.926;6.320;2023-08-21T03:54:59;8.53;;;3.83;;
58101;SDS011;52034;51.926;6.320;2023-08-21T03:55:59;7.50;;;4.33;;
58101;SDS011;52034;51.926;6.320;2023-08-21T03:57:00;9.27;;;3.63;;
58101;SDS011;52034;51.926;6.320;2023-08-21T03:58:00;10.00;;;3.77;;
58101;SDS011;52034;51.926;6.320;2023-08-21T03:59:01;9.83;;;4.03;;
58101;SDS011;52034;51.926;6.320;2023-08-21T04:00:02;9.13;;;3.93;;
58101;SDS011;52034;51.926;6.320;2023-08-21T04:01:03;11.90;;;4.53;;
58101;SDS011;52034;51.926;6.320;2023-08-21T04:02:04;9.07;;;4.27;;
58101;SDS011;52034;51.926;6.320;2023-08-21T04:03:04;12.20;;;4.30;;
58101;SDS011;52034;51.926;6.320;2023-08-21T04:04:04;7.70;;;4.10;;
58101;SDS011;52034;51.926;6.320;2023-08-21T04:05:05;10.30;;;3.80;;
58101;SDS011;52034;51.926;6.320;2023-08-21T04:06:05;6.57;;;3.60;;
58101;SDS011;52034;51.926;6.320;2023-08-21T04:07:07;6.93;;;3.30;;
58101;SDS011;52034;51.926;6.320;2023-08-21T04:08:08;7.20;;;3.13;;
58101;SDS011;52034;51.926;6.320;2023-08-21T04:09:08;5.33;;;3.20;;
58101;SDS011;52034;51.926;6.320;2023-08-21T04:10:08;7.47;;;3.57;;
58101;SDS011;52034;51.926;6.320;2023-08-21T04:11:09;12.67;;;4.70;;
58101;SDS011;52034;51.926;6.320;2023-08-21T04:12:09;10.77;;;4.93;;
58101;SDS011;52034;51.926;6.320;2023-08-21T04:13:09;11.07;;;5.73;;
58101;SDS011;52034;51.926;6.320;2023-08-21T04:14:10;9.07;;;4.90;;
58101;SDS011;52034;51.926;6.320;2023-08-21T04:15:10;9.00;;;5.03;;
58101;SDS011;52034;51.926;6.320;2023-08-21T04:16:11;6.90;;;5.13;;
58101;SDS011;52034;51.926;6.320;2023-08-21T04:17:12;9.75;;;4.47;;
58101;SDS011;52034;51.926;6.320;2023-08-21T04:18:12;9.60;;;4.77;;
58101;SDS011;52034;51.926;6.320;2023-08-21T04:19:12;14.80;;;5.10;;
58101;SDS011;52034;51.926;6.320;2023-08-21T04:20:13;14.27;;;5.40;;
58101;SDS011;52034;51.926;6.320;2023-08-21T04:21:13;8.57;;;5.67;;
58101;SDS011;52034;51.926;6.320;2023-08-21T04:22:13;9.27;;;4.57;;
58101;SDS011;52034;51.926;6.320;2023-08-21T04:23:14;12.03;;;5.43;;
58101;SDS011;52034;51.926;6.320;2023-08-21T04:24:14;9.53;;;5.73;;
58101;SDS011;52034;51.926;6.320;2023-08-21T04:25:15;12.13;;;5.10;;
58101;SDS011;52034;51.926;6.320;2023-08-21T04:26:15;14.77;;;5.63;;
58101;SDS011;52034;51.926;6.320;2023-08-21T04:27:15;11.33;;;5.60;;
58101;SDS011;52034;51.926;6.320;2023-08-21T04:28:16;10.23;;;5.00;;
58101;SDS011;52034;51.926;6.320;2023-08-21T04:29:16;9.57;;;5.40;;
58101;SDS011;52034;51.926;6.320;2023-08-21T04:30:16;12.83;;;5.87;;
58101;SDS011;52034;51.926;6.320;2023-08-21T04:31:17;9.40;;;5.27;;
58101;SDS011;52034;51.926;6.320;2023-08-21T04:32:21;7.97;;;4.93;;
58101;SDS011;52034;51.926;6.320;2023-08-21T04:33:25;9.85;;;4.82;;
58101;SDS011;52034;51.926;6.320;2023-08-21T04:34:28;10.27;;;4.68;;
58101;SDS011;52034;51.926;6.320;2023-08-21T04:35:28;11.10;;;4.77;;
58101;SDS011;52034;51.926;6.320;2023-08-21T04:36:29;8.50;;;4.65;;
58101;SDS011;52034;51.926;6.320;2023-08-21T04:37:30;9.65;;;4.30;;
58101;SDS011;52034;51.926;6.320;2023-08-21T04:38:31;9.43;;;4.47;;
58101;SDS011;52034;51.926;6.320;2023-08-21T04:39:32;9.70;;;4.90;;
58101;SDS011;52034;51.926;6.320;2023-08-21T04:40:32;12.43;;;5.47;;
58101;SDS011;52034;51.926;6.320;2023-08-21T04:41:32;12.60;;;5.07;;
58101;SDS011;52034;51.926;6.320;2023-08-21T04:42:33;12.13;;;5.63;;
58101;SDS011;52034;51.926;6.320;2023-08-21T04:43:33;12.00;;;5.37;;
58101;SDS011;52034;51.926;6.320;2023-08-21T04:44:34;12.00;;;5.10;;
58101;SDS011;52034;51.926;6.320;2023-08-21T04:45:34;10.27;;;5.00;;
58101;SDS011;52034;51.926;6.320;2023-08-21T04:46:37;8.27;;;5.25;;
58101;SDS011;52034;51.926;6.320;2023-08-21T04:47:38;11.95;;;5.25;;
58101;SDS011;52034;51.926;6.320;2023-08-21T04:48:38;9.20;;;4.97;;
58101;SDS011;52034;51.926;6.320;2023-08-21T04:49:39;7.90;;;4.63;;
58101;SDS011;52034;51.926;6.320;2023-08-21T04:50:39;11.77;;;5.67;;
58101;SDS011;52034;51.926;6.320;2023-08-21T04:51:39;9.23;;;5.00;;
58101;SDS011;52034;51.926;6.320;2023-08-21T04:52:40;11.50;;;5.40;;
58101;SDS011;52034;51.926;6.320;2023-08-21T04:53:40;11.33;;;5.43;;
58101;SDS011;52034;51.926;6.320;2023-08-21T04:54:45;9.10;;;5.35;;
58101;SDS011;52034;51.926;6.320;2023-08-21T04:55:48;8.82;;;5.85;;
58101;SDS011;52034;51.926;6.320;2023-08-21T04:56:49;10.37;;;5.13;;
58101;SDS011;52034;51.926;6.320;2023-08-21T04:57:49;12.95;;;5.35;;
58101;SDS011;52034;51.926;6.320;2023-08-21T04:58:50;9.80;;;5.33;;
58101;SDS011;52034;51.926;6.320;2023-08-21T04:59:52;11.82;;;5.57;;
58101;SDS011;52034;51.926;6.320;2023-08-21T05:00:54;9.85;;;5.60;;
58101;SDS011;52034;51.926;6.320;2023-08-21T05:01:54;9.73;;;5.27;;
58101;SDS011;52034;51.926;6.320;2023-08-21T05:02:55;6.90;;;5.20;;
58101;SDS011;52034;51.926;6.320;2023-08-21T05:03:56;8.82;;;5.10;;
58101;SDS011;52034;51.926;6.320;2023-08-21T05:04:57;9.02;;;4.93;;
58101;SDS011;52034;51.926;6.320;2023-08-21T05:05:58;9.63;;;5.23;;
58101;SDS011;52034;51.926;6.320;2023-08-21T05:06:58;9.33;;;4.90;;
58101;SDS011;52034;51.926;6.320;2023-08-21T05:07:59;9.60;;;5.20;;
58101;SDS011;52034;51.926;6.320;2023-08-21T05:08:59;11.00;;;5.00;;
58101;SDS011;52034;51.926;6.320;2023-08-21T05:10:02;11.48;;;5.40;;
58101;SDS011;52034;51.926;6.320;2023-08-21T05:11:05;10.50;;;5.50;;
58101;SDS011;52034;51.926;6.320;2023-08-21T05:12:08;12.45;;;5.38;;
58101;SDS011;52034;51.926;6.320;2023-08-21T05:13:08;7.90;;;5.07;;
58101;SDS011;52034;51.926;6.320;2023-08-21T05:14:08;11.83;;;5.97;;
58101;SDS011;52034;51.926;6.320;2023-08-21T05:15:09;9.87;;;5.67;;
58101;SDS011;52034;51.926;6.320;2023-08-21T05:16:09;8.90;;;5.23;;
58101;SDS011;52034;51.926;6.320;2023-08-21T05:17:12;7.63;;;5.13;;
58101;SDS011;52034;51.926;6.320;2023-08-21T05:18:12;9.50;;;5.53;;
58101;SDS011;52034;51.926;6.320;2023-08-21T05:19:13;10.30;;;5.47;;
58101;SDS011;52034;51.926;6.320;2023-08-21T05:20:13;14.03;;;5.80;;
58101;SDS011;52034;51.926;6.320;2023-08-21T05:22:16;13.50;;;5.43;;
58101;SDS011;52034;51.926;6.320;2023-08-21T05:23:17;9.40;;;5.03;;
58101;SDS011;52034;51.926;6.320;2023-08-21T05:24:20;9.80;;;5.18;;
58101;SDS011;52034;51.926;6.320;2023-08-21T05:25:26;10.52;;;5.78;;
58101;SDS011;52034;51.926;6.320;2023-08-21T05:26:26;9.37;;;5.30;;
58101;SDS011;52034;51.926;6.320;2023-08-21T05:27:27;11.53;;;5.80;;
58101;SDS011;52034;51.926;6.320;2023-08-21T05:28:27;7.67;;;5.37;;
58101;SDS011;52034;51.926;6.320;2023-08-21T05:29:28;8.83;;;5.53;;
58101;SDS011;52034;51.926;6.320;2023-08-21T05:30:28;9.00;;;5.33;;
58101;SDS011;52034;51.926;6.320;2023-08-21T05:31:29;9.33;;;5.60;;
58101;SDS011;52034;51.926;6.320;2023-08-21T05:32:29;12.50;;;5.27;;
58101;SDS011;52034;51.926;6.320;2023-08-21T05:33:30;11.27;;;5.57;;
58101;SDS011;52034;51.926;6.320;2023-08-21T05:34:30;10.20;;;5.80;;
58101;SDS011;52034;51.926;6.320;2023-08-21T05:35:34;12.20;;;5.83;;
58101;SDS011;52034;51.926;6.320;2023-08-21T05:36:36;11.00;;;5.95;;
58101;SDS011;52034;51.926;6.320;2023-08-21T05:37:36;10.60;;;6.10;;
58101;SDS011;52034;51.926;6.320;2023-08-21T05:38:37;9.47;;;5.97;;
58101;SDS011;52034;51.926;6.320;2023-08-21T05:39:37;12.60;;;6.20;;
58101;SDS011;52034;51.926;6.320;2023-08-21T05:40:39;10.57;;;5.90;;
58101;SDS011;52034;51.926;6.320;2023-08-21T05:41:40;9.48;;;6.20;;
58101;SDS011;52034;51.926;6.320;2023-08-21T05:42:41;10.47;;;5.57;;
58101;SDS011;52034;51.926;6.320;2023-08-21T05:43:41;11.93;;;5.77;;
58101;SDS011;52034;51.926;6.320;2023-08-21T05:45:43;10.95;;;5.80;;
58101;SDS011;52034;51.926;6.320;2023-08-21T05:46:45;12.20;;;5.80;;
58101;SDS011;52034;51.926;6.320;2023-08-21T05:47:45;9.97;;;5.87;;
58101;SDS011;52034;51.926;6.320;2023-08-21T05:48:46;8.63;;;5.37;;
58101;SDS011;52034;51.926;6.320;2023-08-21T05:49:46;8.80;;;5.80;;
58101;SDS011;52034;51.926;6.320;2023-08-21T05:50:52;12.77;;;6.18;;
58101;SDS011;52034;51.926;6.320;2023-08-21T05:51:52;13.10;;;6.30;;
58101;SDS011;52034;51.926;6.320;2023-08-21T05:52:53;10.50;;;5.40;;
58101;SDS011;52034;51.926;6.320;2023-08-21T05:53:54;9.80;;;5.70;;
58101;SDS011;52034;51.926;6.320;2023-08-21T05:54:55;13.23;;;5.83;;
58101;SDS011;52034;51.926;6.320;2023-08-21T05:55:55;15.63;;;5.80;;
58101;SDS011;52034;51.926;6.320;2023-08-21T05:56:55;13.90;;;6.20;;
58101;SDS011;52034;51.926;6.320;2023-08-21T05:57:56;11.87;;;5.73;;
58101;SDS011;52034;51.926;6.320;2023-08-21T05:58:56;10.27;;;6.37;;
58101;SDS011;52034;51.926;6.320;2023-08-21T05:59:59;7.65;;;5.63;;
58101;SDS011;52034;51.926;6.320;2023-08-21T06:01:01;14.25;;;5.88;;
58101;SDS011;52034;51.926;6.320;2023-08-21T06:02:04;10.43;;;5.47;;
58101;SDS011;52034;51.926;6.320;2023-08-21T06:03:05;11.32;;;5.45;;
58101;SDS011;52034;51.926;6.320;2023-08-21T06:04:23;9.25;;;5.68;;
58101;SDS011;52034;51.926;6.320;2023-08-21T06:05:32;11.10;;;5.68;;
58101;SDS011;52034;51.926;6.320;2023-08-21T06:06:32;8.50;;;5.17;;
58101;SDS011;52034;51.926;6.320;2023-08-21T06:07:33;13.13;;;5.67;;
58101;SDS011;52034;51.926;6.320;2023-08-21T06:08:33;12.97;;;6.17;;
58101;SDS011;52034;51.926;6.320;2023-08-21T06:09:33;14.27;;;6.10;;
58101;SDS011;52034;51.926;6.320;2023-08-21T06:10:34;11.17;;;5.57;;
58101;SDS011;52034;51.926;6.320;2023-08-21T06:11:34;11.43;;;5.00;;
58101;SDS011;52034;51.926;6.320;2023-08-21T06:12:34;14.37;;;5.33;;
58101;SDS011;52034;51.926;6.320;2023-08-21T06:13:35;8.67;;;4.93;;